sensor_id;sensor_type;location;lat;lon;timestamp;pressure;altitude;pressure_sealevel;temperature;humidity
80640;BME280;69992;60.170;24.692;2024-02-26T00:00:46;101200.47;;;-6.21;32.78
80640;BME280;69992;60.170;24.692;2024-02-26T00:03:12;101202.77;;;-6.05;32.65
80640;BME280;69992;60.170;24.692;2024-02-26T00:05:37;101204.55;;;-7.11;32.68
80640;BME280;69992;60.170;24.692;2024-02-26T00:08:02;101208.62;;;-6.11;32.67
80640;BME280;69992;60.170;24.692;2024-02-26T00:10:27;101208.40;;;-6.10;32.67
80640;BME280;69992;60.170;24.692;2024-02-26T00:12:53;101203.91;;;-5.19;32.71
80640;BME280;69992;60.170;24.692;2024-02-26T00:15:19;101198.71;;;-5.25;32.72
80640;BME280;69992;60.170;24.692;2024-02-26T00:17:44;101195.75;;;-7.18;32.72
80640;BME280;69992;60.170;24.692;2024-02-26T00:20:11;101189.42;;;-6.24;32.67
80640;BME280;69992;60.170;24.692;2024-02-26T00:22:35;101188.71;;;-8.30;32.70
80640;BME280;69992;60.170;24.692;2024-02-26T00:25:00;101190.15;;;-6.32;32.72
80640;BME280;69992;60.170;24.692;2024-02-26T00:27:25;101187.12;;;-5.32;32.71
80640;BME280;69992;60.170;24.692;2024-02-26T00:29:50;101189.00;;;-6.28;32.71
80640;BME280;69992;60.170;24.692;2024-02-26T00:32:16;101193.70;;;-5.31;32.71
80640;BME280;69992;60.170;24.692;2024-02-26T00:34:41;101189.21;;;-7.22;32.70
80640;BME280;69992;60.170;24.692;2024-02-26T00:37:06;101191.76;;;-6.19;32.65
80640;BME280;69992;60.170;24.692;2024-02-26T00:39:32;101190.58;;;-6.17;32.64
80640;BME280;69992;60.170;24.692;2024-02-26T00:41:57;101187.56;;;-6.20;32.62
80640;BME280;69992;60.170;24.692;2024-02-26T00:44:23;101185.92;;;-5.29;32.65
80640;BME280;69992;60.170;24.692;2024-02-26T00:46:48;101185.27;;;-7.24;32.68
80640;BME280;69992;60.170;24.692;2024-02-26T00:49:13;101183.55;;;-5.22;32.67
80640;BME280;69992;60.170;24.692;2024-02-26T00:51:38;101182.34;;;-7.16;32.67
80640;BME280;69992;60.170;24.692;2024-02-26T00:54:04;101182.46;;;-5.17;32.66
80640;BME280;69992;60.170;24.692;2024-02-26T00:56:29;101184.98;;;-5.11;32.64
80640;BME280;69992;60.170;24.692;2024-02-26T00:58:54;101187.61;;;-6.03;32.63
80640;BME280;69992;60.170;24.692;2024-02-26T01:01:20;101181.54;;;-5.01;32.62
80640;BME280;69992;60.170;24.692;2024-02-26T01:03:45;101176.87;;;-6.92;32.62
80640;BME280;69992;60.170;24.692;2024-02-26T01:06:11;101171.03;;;-5.93;32.63
80640;BME280;69992;60.170;24.692;2024-02-26T01:08:37;101164.64;;;-6.86;32.62
80640;BME280;69992;60.170;24.692;2024-02-26T01:11:06;101163.48;;;-5.83;32.60
80640;BME280;69992;60.170;24.692;2024-02-26T01:13:28;101161.68;;;-5.78;32.58
80640;BME280;69992;60.170;24.692;2024-02-26T01:15:53;101158.54;;;-5.75;32.58
80640;BME280;69992;60.170;24.692;2024-02-26T01:18:19;101158.36;;;-4.85;32.55
80640;BME280;69992;60.170;24.692;2024-02-26T01:20:44;101158.38;;;-5.02;32.61
80640;BME280;69992;60.170;24.692;2024-02-26T01:23:10;101154.33;;;-5.13;32.63
80640;BME280;69992;60.170;24.692;2024-02-26T01:25:35;101149.44;;;-7.30;32.68
80640;BME280;69992;60.170;24.692;2024-02-26T01:28:00;101146.45;;;-5.44;32.70
80640;BME280;69992;60.170;24.692;2024-02-26T01:30:26;101146.83;;;-5.52;32.73
80640;BME280;69992;60.170;24.692;2024-02-26T01:32:52;101149.78;;;-5.51;32.76
80640;BME280;69992;60.170;24.692;2024-02-26T01:35:27;101147.38;;;-7.36;32.74
80640;BME280;69992;60.170;24.692;2024-02-26T01:37:42;101142.41;;;-7.26;32.69
80640;BME280;69992;60.170;24.692;2024-02-26T01:40:08;101142.23;;;-5.30;32.70
80640;BME280;69992;60.170;24.692;2024-02-26T01:42:33;101144.79;;;-7.19;32.71
80640;BME280;69992;60.170;24.692;2024-02-26T01:44:58;101149.02;;;-6.04;32.68
80640;BME280;69992;60.170;24.692;2024-02-26T01:47:23;101149.75;;;-5.97;32.63
80640;BME280;69992;60.170;24.692;2024-02-26T01:49:52;101150.85;;;-6.91;32.64
80640;BME280;69992;60.170;24.692;2024-02-26T01:52:14;101146.53;;;-6.83;32.62
80640;BME280;69992;60.170;24.692;2024-02-26T01:54:39;101139.59;;;-5.86;32.62
80640;BME280;69992;60.170;24.692;2024-02-26T01:57:06;101138.42;;;-6.84;32.61
80640;BME280;69992;60.170;24.692;2024-02-26T01:59:30;101143.43;;;-4.88;32.62
80640;BME280;69992;60.170;24.692;2024-02-26T02:01:57;101144.19;;;-4.87;32.64
80640;BME280;69992;60.170;24.692;2024-02-26T02:04:21;101146.22;;;-4.79;32.60
80640;BME280;69992;60.170;24.692;2024-02-26T02:06:46;101151.23;;;-5.72;32.58
80640;BME280;69992;60.170;24.692;2024-02-26T02:09:11;101154.62;;;-5.79;32.57
80640;BME280;69992;60.170;24.692;2024-02-26T02:11:37;101154.83;;;-6.83;32.62
80640;BME280;69992;60.170;24.692;2024-02-26T02:14:06;101149.42;;;-5.85;32.62
80640;BME280;69992;60.170;24.692;2024-02-26T02:16:28;101144.01;;;-4.89;32.61
80640;BME280;69992;60.170;24.692;2024-02-26T02:18:54;101143.61;;;-5.86;32.61
80640;BME280;69992;60.170;24.692;2024-02-26T02:21:19;101145.12;;;-5.82;32.61
80640;BME280;69992;60.170;24.692;2024-02-26T02:23:45;101138.69;;;-5.80;32.63
80640;BME280;69992;60.170;24.692;2024-02-26T02:26:10;101135.75;;;-6.75;32.61
80640;BME280;69992;60.170;24.692;2024-02-26T02:28:35;101133.62;;;-6.79;32.63
80640;BME280;69992;60.170;24.692;2024-02-26T02:31:01;101138.62;;;-6.73;32.61
80640;BME280;69992;60.170;24.692;2024-02-26T02:33:27;101133.81;;;-5.70;32.60
80640;BME280;69992;60.170;24.692;2024-02-26T02:35:52;101130.41;;;-5.66;32.59
80640;BME280;69992;60.170;24.692;2024-02-26T02:38:18;101136.77;;;-5.66;32.60
80640;BME280;69992;60.170;24.692;2024-02-26T02:40:44;101140.63;;;-5.63;32.60
80640;BME280;69992;60.170;24.692;2024-02-26T02:43:09;101136.57;;;-5.65;32.62
80640;BME280;69992;60.170;24.692;2024-02-26T02:45:34;101132.52;;;-7.63;32.62
80640;BME280;69992;60.170;24.692;2024-02-26T02:47:59;101129.54;;;-6.61;32.61
80640;BME280;69992;60.170;24.692;2024-02-26T02:50:24;101134.10;;;-6.59;32.62
80640;BME280;69992;60.170;24.692;2024-02-26T02:52:50;101136.66;;;-5.51;32.62
80640;BME280;69992;60.170;24.692;2024-02-26T02:55:15;101139.62;;;-5.42;32.59
80640;BME280;69992;60.170;24.692;2024-02-26T02:57:41;101139.75;;;-6.30;32.60
80640;BME280;69992;60.170;24.692;2024-02-26T03:00:07;101139.65;;;-6.22;32.60
80640;BME280;69992;60.170;24.692;2024-02-26T03:02:32;101146.61;;;-5.15;32.60
80640;BME280;69992;60.170;24.692;2024-02-26T03:04:56;101148.93;;;-4.10;32.61
80640;BME280;69992;60.170;24.692;2024-02-26T03:07:21;101150.77;;;-5.02;32.62
80640;BME280;69992;60.170;24.692;2024-02-26T03:09:47;101150.01;;;-5.96;32.62
80640;BME280;69992;60.170;24.692;2024-02-26T03:12:15;101147.64;;;-5.94;32.63
80640;BME280;69992;60.170;24.692;2024-02-26T03:14:41;101152.60;;;-5.91;32.65
80640;BME280;69992;60.170;24.692;2024-02-26T03:17:04;101155.59;;;-5.80;32.65
80640;BME280;69992;60.170;24.692;2024-02-26T03:19:28;101156.31;;;-5.78;32.65
80640;BME280;69992;60.170;24.692;2024-02-26T03:21:53;101154.02;;;-5.86;32.71
80640;BME280;69992;60.170;24.692;2024-02-26T03:24:19;101148.13;;;-4.95;32.74
80640;BME280;69992;60.170;24.692;2024-02-26T03:26:48;101143.61;;;-5.92;32.76
80640;BME280;69992;60.170;24.692;2024-02-26T03:29:10;101145.03;;;-5.78;32.73
80640;BME280;69992;60.170;24.692;2024-02-26T03:31:35;101140.20;;;-6.72;32.72
80640;BME280;69992;60.170;24.692;2024-02-26T03:34:01;101137.13;;;-5.69;32.72
80640;BME280;69992;60.170;24.692;2024-02-26T03:36:27;101137.25;;;-5.58;32.72
80640;BME280;69992;60.170;24.692;2024-02-26T03:38:52;101135.62;;;-5.46;32.69
80640;BME280;69992;60.170;24.692;2024-02-26T03:41:17;101136.16;;;-5.39;32.67
80640;BME280;69992;60.170;24.692;2024-02-26T03:43:42;101139.12;;;-5.39;32.71
80640;BME280;69992;60.170;24.692;2024-02-26T03:46:08;101145.61;;;-5.37;32.73
80640;BME280;69992;60.170;24.692;2024-02-26T03:48:34;101152.74;;;-7.18;32.72
80640;BME280;69992;60.170;24.692;2024-02-26T03:50:59;101158.70;;;-5.22;32.68
80640;BME280;69992;60.170;24.692;2024-02-26T03:53:25;101166.86;;;-4.27;32.72
80640;BME280;69992;60.170;24.692;2024-02-26T03:55:50;101168.39;;;-5.30;32.72
80640;BME280;69992;60.170;24.692;2024-02-26T03:58:15;101168.78;;;-5.30;32.73
80640;BME280;69992;60.170;24.692;2024-02-26T04:00:42;101167.49;;;-6.27;32.76
80640;BME280;69992;60.170;24.692;2024-02-26T04:03:07;101167.75;;;-5.30;32.74
80640;BME280;69992;60.170;24.692;2024-02-26T04:05:33;101163.91;;;-5.29;32.75
80640;BME280;69992;60.170;24.692;2024-02-26T04:07:59;101157.41;;;-5.28;32.74
80640;BME280;69992;60.170;24.692;2024-02-26T04:10:24;101154.20;;;-5.27;32.76
80640;BME280;69992;60.170;24.692;2024-02-26T04:12:49;101154.00;;;-6.19;32.76
80640;BME280;69992;60.170;24.692;2024-02-26T04:15:19;101149.74;;;-5.19;32.72
80640;BME280;69992;60.170;24.692;2024-02-26T04:17:41;101142.44;;;-5.29;32.74
80640;BME280;69992;60.170;24.692;2024-02-26T04:20:07;101141.34;;;-5.32;32.75
80640;BME280;69992;60.170;24.692;2024-02-26T04:22:32;101141.43;;;-7.30;32.76
80640;BME280;69992;60.170;24.692;2024-02-26T04:24:57;101138.02;;;-5.36;32.79
80640;BME280;69992;60.170;24.692;2024-02-26T04:27:23;101137.23;;;-4.34;32.78
80640;BME280;69992;60.170;24.692;2024-02-26T04:29:48;101136.85;;;-5.23;32.78
80640;BME280;69992;60.170;24.692;2024-02-26T04:32:14;101138.94;;;-4.15;32.77
80640;BME280;69992;60.170;24.692;2024-02-26T04:34:39;101133.41;;;-6.08;32.75
80640;BME280;69992;60.170;24.692;2024-02-26T04:37:05;101131.52;;;-5.05;32.74
80640;BME280;69992;60.170;24.692;2024-02-26T04:39:31;101128.23;;;-4.93;32.71
80640;BME280;69992;60.170;24.692;2024-02-26T04:41:55;101129.83;;;-4.93;32.72
80640;BME280;69992;60.170;24.692;2024-02-26T04:44:21;101131.01;;;-4.93;32.74
80640;BME280;69992;60.170;24.692;2024-02-26T04:46:46;101123.74;;;-4.95;32.78
80640;BME280;69992;60.170;24.692;2024-02-26T04:49:12;101113.99;;;-5.85;32.79
80640;BME280;69992;60.170;24.692;2024-02-26T04:51:37;101112.82;;;-6.68;32.78
80640;BME280;69992;60.170;24.692;2024-02-26T04:54:03;101114.17;;;-5.59;32.72
80640;BME280;69992;60.170;24.692;2024-02-26T04:56:29;101112.48;;;-4.56;32.70
80640;BME280;69992;60.170;24.692;2024-02-26T04:58:54;101114.15;;;-4.56;32.71
80640;BME280;69992;60.170;24.692;2024-02-26T05:01:20;101110.47;;;-4.61;32.76
80640;BME280;69992;60.170;24.692;2024-02-26T05:03:45;101107.67;;;-4.55;32.79
80640;BME280;69992;60.170;24.692;2024-02-26T05:06:10;101108.08;;;-4.44;32.77
80640;BME280;69992;60.170;24.692;2024-02-26T05:08:36;101114.40;;;-6.38;32.79
80640;BME280;69992;60.170;24.692;2024-02-26T05:11:01;101113.55;;;-4.33;32.75
80640;BME280;69992;60.170;24.692;2024-02-26T05:13:26;101109.39;;;-6.25;32.76
80640;BME280;69992;60.170;24.692;2024-02-26T05:15:52;101103.64;;;-4.25;32.74
80640;BME280;69992;60.170;24.692;2024-02-26T05:18:18;101102.12;;;-4.30;32.75
80640;BME280;69992;60.170;24.692;2024-02-26T05:20:43;101107.83;;;-5.41;32.78
80640;BME280;69992;60.170;24.692;2024-02-26T05:23:09;101112.17;;;-5.43;32.81
80640;BME280;69992;60.170;24.692;2024-02-26T05:25:35;101114.62;;;-5.37;32.80
80640;BME280;69992;60.170;24.692;2024-02-26T05:28:00;101120.02;;;-4.32;32.80
80640;BME280;69992;60.170;24.692;2024-02-26T05:30:26;101120.55;;;-4.24;32.74
80640;BME280;69992;60.170;24.692;2024-02-26T05:32:51;101122.45;;;-4.30;32.76
80640;BME280;69992;60.170;24.692;2024-02-26T05:35:17;101122.47;;;-5.31;32.77
80640;BME280;69992;60.170;24.692;2024-02-26T05:37:43;101123.66;;;-6.41;32.80
80640;BME280;69992;60.170;24.692;2024-02-26T05:40:09;101126.14;;;-4.49;32.82
80640;BME280;69992;60.170;24.692;2024-02-26T05:42:34;101127.11;;;-6.63;32.84
80640;BME280;69992;60.170;24.692;2024-02-26T05:44:59;101125.70;;;-4.90;32.87
80640;BME280;69992;60.170;24.692;2024-02-26T05:47:25;101118.01;;;-5.03;32.89
80640;BME280;69992;60.170;24.692;2024-02-26T05:49:50;101122.22;;;-5.07;32.95
80640;BME280;69992;60.170;24.692;2024-02-26T05:52:15;101124.07;;;-5.01;32.93
80640;BME280;69992;60.170;24.692;2024-02-26T05:54:41;101123.36;;;-5.05;32.95
80640;BME280;69992;60.170;24.692;2024-02-26T05:57:06;101124.17;;;-5.04;32.92
80640;BME280;69992;60.170;24.692;2024-02-26T05:59:32;101123.06;;;-5.03;32.95
80640;BME280;69992;60.170;24.692;2024-02-26T06:01:57;101125.02;;;-4.92;32.94
80640;BME280;69992;60.170;24.692;2024-02-26T06:04:22;101127.05;;;-4.75;32.90
80640;BME280;69992;60.170;24.692;2024-02-26T06:06:49;101127.55;;;-4.65;32.90
80640;BME280;69992;60.170;24.692;2024-02-26T06:09:13;101124.75;;;-4.60;32.88
80640;BME280;69992;60.170;24.692;2024-02-26T06:11:39;101126.73;;;-5.56;32.89
80640;BME280;69992;60.170;24.692;2024-02-26T06:14:04;101127.23;;;-5.51;32.86
80640;BME280;69992;60.170;24.692;2024-02-26T06:16:30;101121.84;;;-4.42;32.79
80640;BME280;69992;60.170;24.692;2024-02-26T06:18:55;101121.35;;;-5.47;32.81
80640;BME280;69992;60.170;24.692;2024-02-26T06:21:21;101121.93;;;-4.54;32.84
80640;BME280;69992;60.170;24.692;2024-02-26T06:23:46;101116.51;;;-5.57;32.90
80640;BME280;69992;60.170;24.692;2024-02-26T06:26:11;101114.55;;;-4.59;32.89
80640;BME280;69992;60.170;24.692;2024-02-26T06:28:37;101117.27;;;-6.49;32.91
80640;BME280;69992;60.170;24.692;2024-02-26T06:31:04;101120.02;;;-4.44;32.86
80640;BME280;69992;60.170;24.692;2024-02-26T06:33:28;101118.22;;;-4.44;32.85
80640;BME280;69992;60.170;24.692;2024-02-26T06:35:53;101113.09;;;-4.46;32.87
80640;BME280;69992;60.170;24.692;2024-02-26T06:38:19;101112.74;;;-4.50;32.88
80640;BME280;69992;60.170;24.692;2024-02-26T06:40:48;101110.04;;;-4.50;32.87
80640;BME280;69992;60.170;24.692;2024-02-26T06:43:10;101107.63;;;-4.55;32.89
80640;BME280;69992;60.170;24.692;2024-02-26T06:45:36;101108.34;;;-6.50;32.91
80640;BME280;69992;60.170;24.692;2024-02-26T06:48:02;101113.13;;;-4.60;32.92
80640;BME280;69992;60.170;24.692;2024-02-26T06:50:27;101111.20;;;-4.63;32.93
80640;BME280;69992;60.170;24.692;2024-02-26T06:52:52;101109.67;;;-5.55;32.92
80640;BME280;69992;60.170;24.692;2024-02-26T06:55:18;101109.05;;;-4.55;32.92
80640;BME280;69992;60.170;24.692;2024-02-26T06:57:44;101107.13;;;-4.50;32.95
80640;BME280;69992;60.170;24.692;2024-02-26T07:00:10;101103.40;;;-4.44;32.91
80640;BME280;69992;60.170;24.692;2024-02-26T07:02:34;101097.90;;;-5.31;32.91
80640;BME280;69992;60.170;24.692;2024-02-26T07:05:00;101100.31;;;-4.23;32.92
80640;BME280;69992;60.170;24.692;2024-02-26T07:07:25;101103.74;;;-4.13;32.92
80640;BME280;69992;60.170;24.692;2024-02-26T07:09:51;101106.34;;;-4.95;32.91
80640;BME280;69992;60.170;24.692;2024-02-26T07:12:19;101105.64;;;-4.83;32.87
80640;BME280;69992;60.170;24.692;2024-02-26T07:14:42;101101.82;;;-4.70;32.86
80640;BME280;69992;60.170;24.692;2024-02-26T07:17:08;101102.78;;;-5.59;32.87
80640;BME280;69992;60.170;24.692;2024-02-26T07:19:32;101105.04;;;-5.49;32.84
80640;BME280;69992;60.170;24.692;2024-02-26T07:21:58;101099.48;;;-3.55;32.86
80640;BME280;69992;60.170;24.692;2024-02-26T07:24:24;101091.36;;;-4.46;32.87
80640;BME280;69992;60.170;24.692;2024-02-26T07:26:49;101085.96;;;-5.34;32.85
80640;BME280;69992;60.170;24.692;2024-02-26T07:29:14;101082.83;;;-4.23;32.85
80640;BME280;69992;60.170;24.692;2024-02-26T07:31:40;101079.04;;;-5.11;32.81
80640;BME280;69992;60.170;24.692;2024-02-26T07:34:06;101078.40;;;-5.08;32.83
80640;BME280;69992;60.170;24.692;2024-02-26T07:36:32;101078.07;;;-5.03;32.83
80640;BME280;69992;60.170;24.692;2024-02-26T07:38:56;101088.86;;;-4.94;32.84
80640;BME280;69992;60.170;24.692;2024-02-26T07:41:22;101091.88;;;-4.94;32.85
80640;BME280;69992;60.170;24.692;2024-02-26T07:43:47;101090.77;;;-4.92;32.84
80640;BME280;69992;60.170;24.692;2024-02-26T07:46:13;101091.05;;;-4.93;32.85
80640;BME280;69992;60.170;24.692;2024-02-26T07:48:39;101090.47;;;-5.84;32.85
80640;BME280;69992;60.170;24.692;2024-02-26T07:51:04;101078.33;;;-4.88;32.86
80640;BME280;69992;60.170;24.692;2024-02-26T07:53:31;101073.87;;;-4.88;32.91
80640;BME280;69992;60.170;24.692;2024-02-26T07:55:55;101073.58;;;-4.76;32.91
80640;BME280;69992;60.170;24.692;2024-02-26T07:58:20;101073.73;;;-4.64;32.87
80640;BME280;69992;60.170;24.692;2024-02-26T08:00:46;101074.03;;;-4.51;32.86
80640;BME280;69992;60.170;24.692;2024-02-26T08:03:11;101071.63;;;-4.41;32.82
80640;BME280;69992;60.170;24.692;2024-02-26T08:05:36;101076.00;;;-4.48;32.83
80640;BME280;69992;60.170;24.692;2024-02-26T08:08:02;101079.79;;;-3.57;32.88
80640;BME280;69992;60.170;24.692;2024-02-26T08:10:27;101078.01;;;-3.61;32.89
80640;BME280;69992;60.170;24.692;2024-02-26T08:12:53;101080.10;;;-4.61;32.93
80640;BME280;69992;60.170;24.692;2024-02-26T08:15:18;101081.45;;;-4.64;32.94
80640;BME280;69992;60.170;24.692;2024-02-26T08:17:44;101082.62;;;-4.62;32.97
80640;BME280;69992;60.170;24.692;2024-02-26T08:20:10;101082.21;;;-3.60;32.94
80640;BME280;69992;60.170;24.692;2024-02-26T08:22:36;101082.04;;;-4.71;32.95
80640;BME280;69992;60.170;24.692;2024-02-26T08:25:02;101080.25;;;-4.79;33.03
80640;BME280;69992;60.170;24.692;2024-02-26T08:27:27;101079.36;;;-4.67;33.00
80640;BME280;69992;60.170;24.692;2024-02-26T08:29:53;101081.52;;;-4.56;32.99
80640;BME280;69992;60.170;24.692;2024-02-26T08:32:18;101082.62;;;-2.60;33.00
80640;BME280;69992;60.170;24.692;2024-02-26T08:34:43;101084.43;;;-5.47;32.96
80640;BME280;69992;60.170;24.692;2024-02-26T08:37:12;101079.83;;;-4.39;32.96
80640;BME280;69992;60.170;24.692;2024-02-26T08:39:34;101082.36;;;-4.28;32.94
80640;BME280;69992;60.170;24.692;2024-02-26T08:41:59;101080.18;;;-4.22;32.98
80640;BME280;69992;60.170;24.692;2024-02-26T08:44:25;101084.21;;;-4.09;32.98
80640;BME280;69992;60.170;24.692;2024-02-26T08:46:51;101081.61;;;-3.96;32.98
80640;BME280;69992;60.170;24.692;2024-02-26T08:49:17;101080.07;;;-3.82;32.96
80640;BME280;69992;60.170;24.692;2024-02-26T08:51:42;101076.65;;;-4.71;32.94
80640;BME280;69992;60.170;24.692;2024-02-26T08:54:07;101074.34;;;-3.72;32.97
80640;BME280;69992;60.170;24.692;2024-02-26T08:56:33;101069.93;;;-3.63;32.96
80640;BME280;69992;60.170;24.692;2024-02-26T08:58:59;101069.74;;;-3.63;33.01
80640;BME280;69992;60.170;24.692;2024-02-26T09:01:25;101066.83;;;-3.61;33.03
80640;BME280;69992;60.170;24.692;2024-02-26T09:03:50;101068.61;;;-3.56;33.03
80640;BME280;69992;60.170;24.692;2024-02-26T09:06:19;101067.24;;;-3.49;33.05
80640;BME280;69992;60.170;24.692;2024-02-26T09:08:42;101067.77;;;-3.36;33.04
80640;BME280;69992;60.170;24.692;2024-02-26T09:11:07;101062.19;;;-3.29;33.02
80640;BME280;69992;60.170;24.692;2024-02-26T09:13:33;101062.56;;;-5.19;33.02
80640;BME280;69992;60.170;24.692;2024-02-26T09:15:59;101057.81;;;-3.25;33.01
80640;BME280;69992;60.170;24.692;2024-02-26T09:18:27;101057.90;;;-3.19;33.04
80640;BME280;69992;60.170;24.692;2024-02-26T09:20:50;101060.57;;;-3.04;33.03
80640;BME280;69992;60.170;24.692;2024-02-26T09:23:16;101056.38;;;-2.96;33.03
80640;BME280;69992;60.170;24.692;2024-02-26T09:25:42;101054.98;;;-2.86;33.05
80640;BME280;69992;60.170;24.692;2024-02-26T09:28:08;101056.25;;;-3.72;33.03
80640;BME280;69992;60.170;24.692;2024-02-26T09:30:33;101056.28;;;-4.60;33.00
80640;BME280;69992;60.170;24.692;2024-02-26T09:32:59;101058.13;;;-2.61;33.00
80640;BME280;69992;60.170;24.692;2024-02-26T09:35:25;101056.76;;;-3.58;33.07
80640;BME280;69992;60.170;24.692;2024-02-26T09:37:51;101056.01;;;-3.44;33.05
80640;BME280;69992;60.170;24.692;2024-02-26T09:40:17;101056.13;;;-3.35;33.05
80640;BME280;69992;60.170;24.692;2024-02-26T09:42:44;101056.73;;;-3.29;33.06
80640;BME280;69992;60.170;24.692;2024-02-26T09:45:11;101056.87;;;-3.18;33.01
80640;BME280;69992;60.170;24.692;2024-02-26T09:47:36;101057.98;;;-4.24;33.03
80640;BME280;69992;60.170;24.692;2024-02-26T09:50:12;101058.46;;;-4.27;33.08
80640;BME280;69992;60.170;24.692;2024-02-26T09:52:26;101053.95;;;-3.19;33.07
80640;BME280;69992;60.170;24.692;2024-02-26T09:54:51;101049.26;;;-3.11;33.09
80640;BME280;69992;60.170;24.692;2024-02-26T09:57:21;101047.29;;;-2.98;33.10
80640;BME280;69992;60.170;24.692;2024-02-26T09:59:44;101044.63;;;-2.87;33.10
80640;BME280;69992;60.170;24.692;2024-02-26T10:02:12;101044.10;;;-3.73;33.09
80640;BME280;69992;60.170;24.692;2024-02-26T10:04:35;101041.68;;;-3.65;33.08
80640;BME280;69992;60.170;24.692;2024-02-26T10:07:01;101039.63;;;-2.64;33.08
80640;BME280;69992;60.170;24.692;2024-02-26T10:09:26;101032.71;;;-2.61;33.08
80640;BME280;69992;60.170;24.692;2024-02-26T10:11:52;101033.82;;;-1.59;33.12
80640;BME280;69992;60.170;24.692;2024-02-26T10:14:18;101025.32;;;-3.53;33.12
80640;BME280;69992;60.170;24.692;2024-02-26T10:16:44;101018.27;;;-3.54;33.15
80640;BME280;69992;60.170;24.692;2024-02-26T10:21:36;101019.67;;;-3.33;33.12
80640;BME280;69992;60.170;24.692;2024-02-26T10:24:01;101014.89;;;-3.27;33.13
80640;BME280;69992;60.170;24.692;2024-02-26T10:26:27;101008.96;;;-3.25;33.16
80640;BME280;69992;60.170;24.692;2024-02-26T10:28:52;101010.20;;;-3.27;33.18
80640;BME280;69992;60.170;24.692;2024-02-26T10:31:18;101006.77;;;-3.64;32.48
80640;BME280;69992;60.170;24.692;2024-02-26T10:33:44;100999.22;;;-1.80;32.35
80640;BME280;69992;60.170;24.692;2024-02-26T10:36:10;100997.95;;;-2.42;32.71
80640;BME280;69992;60.170;24.692;2024-02-26T10:38:36;101001.88;;;-2.65;32.92
80640;BME280;69992;60.170;24.692;2024-02-26T10:41:02;101000.03;;;-2.76;33.04
80640;BME280;69992;60.170;24.692;2024-02-26T10:43:27;100998.55;;;-2.79;33.10
80640;BME280;69992;60.170;24.692;2024-02-26T10:45:55;101000.49;;;-2.73;33.13
80640;BME280;69992;60.170;24.692;2024-02-26T10:48:19;100999.60;;;-2.70;33.13
80640;BME280;69992;60.170;24.692;2024-02-26T10:50:46;101002.73;;;-2.75;33.16
80640;BME280;69992;60.170;24.692;2024-02-26T10:53:15;101003.72;;;-2.79;33.18
80640;BME280;69992;60.170;24.692;2024-02-26T10:55:37;101005.97;;;-2.89;33.22
80640;BME280;69992;60.170;24.692;2024-02-26T10:58:02;101009.97;;;-2.94;33.23
80640;BME280;69992;60.170;24.692;2024-02-26T11:00:28;101015.43;;;-1.95;33.25
80640;BME280;69992;60.170;24.692;2024-02-26T11:02:54;101018.09;;;-3.01;33.28
80640;BME280;69992;60.170;24.692;2024-02-26T11:05:20;101023.54;;;-2.10;33.30
80640;BME280;69992;60.170;24.692;2024-02-26T11:07:45;101024.81;;;-3.10;33.32
80640;BME280;69992;60.170;24.692;2024-02-26T11:10:12;101027.34;;;-2.11;33.33
80640;BME280;69992;60.170;24.692;2024-02-26T11:12:38;101028.28;;;-3.08;33.34
80640;BME280;69992;60.170;24.692;2024-02-26T11:15:03;101030.75;;;-3.04;33.31
80640;BME280;69992;60.170;24.692;2024-02-26T11:17:29;101029.52;;;-2.08;33.32
80640;BME280;69992;60.170;24.692;2024-02-26T11:19:56;101029.24;;;-3.17;33.33
80640;BME280;69992;60.170;24.692;2024-02-26T11:22:19;101027.53;;;-3.30;33.37
80640;BME280;69992;60.170;24.692;2024-02-26T11:24:45;101027.65;;;-2.41;33.39
80640;BME280;69992;60.170;24.692;2024-02-26T11:27:11;101026.18;;;-3.43;33.41
80640;BME280;69992;60.170;24.692;2024-02-26T11:29:41;101024.80;;;-2.39;33.40
80640;BME280;69992;60.170;24.692;2024-02-26T11:32:06;101023.71;;;-2.39;33.37
80640;BME280;69992;60.170;24.692;2024-02-26T11:34:29;101024.32;;;-2.45;33.35
80640;BME280;69992;60.170;24.692;2024-02-26T11:36:54;101022.93;;;-2.60;33.38
80640;BME280;69992;60.170;24.692;2024-02-26T11:39:20;101020.72;;;-2.67;33.40
80640;BME280;69992;60.170;24.692;2024-02-26T11:41:46;101022.58;;;-3.67;33.42
80640;BME280;69992;60.170;24.692;2024-02-26T11:46:39;101025.14;;;-3.36;33.52
80640;BME280;69992;60.170;24.692;2024-02-26T11:51:33;101021.90;;;-2.19;33.33
80640;BME280;69992;60.170;24.692;2024-02-26T11:53:55;101023.19;;;-3.13;33.31
80640;BME280;69992;60.170;24.692;2024-02-26T11:56:24;101027.34;;;-3.16;33.28
80640;BME280;69992;60.170;24.692;2024-02-26T11:58:47;101027.77;;;-3.36;33.31
80640;BME280;69992;60.170;24.692;2024-02-26T12:03:39;101022.38;;;-3.39;33.30
80640;BME280;69992;60.170;24.692;2024-02-26T12:06:04;101022.98;;;-3.37;33.30
80640;BME280;69992;60.170;24.692;2024-02-26T12:08:30;101021.75;;;-1.49;33.33
80640;BME280;69992;60.170;24.692;2024-02-26T12:10:55;101018.60;;;-2.41;33.37
80640;BME280;69992;60.170;24.692;2024-02-26T12:13:29;101018.65;;;-3.33;33.34
80640;BME280;69992;60.170;24.692;2024-02-26T12:15:55;101020.53;;;-3.14;33.30
80640;BME280;69992;60.170;24.692;2024-02-26T12:18:17;101018.86;;;-2.08;33.29
80640;BME280;69992;60.170;24.692;2024-02-26T12:20:38;101016.97;;;-3.95;33.26
80640;BME280;69992;60.170;24.692;2024-02-26T12:23:07;101014.98;;;-2.90;33.23
80640;BME280;69992;60.170;24.692;2024-02-26T12:25:31;101012.95;;;-2.01;33.24
80640;BME280;69992;60.170;24.692;2024-02-26T12:27:56;101007.97;;;-2.15;33.29
80640;BME280;69992;60.170;24.692;2024-02-26T12:30:22;101005.85;;;-2.18;33.34
80640;BME280;69992;60.170;24.692;2024-02-26T12:32:48;101007.95;;;-3.18;33.36
80640;BME280;69992;60.170;24.692;2024-02-26T12:35:13;101011.16;;;-2.13;33.33
80640;BME280;69992;60.170;24.692;2024-02-26T12:37:39;101009.42;;;-3.11;33.33
80640;BME280;69992;60.170;24.692;2024-02-26T12:40:06;101005.93;;;-2.14;33.32